Flores (flores Isl.), Flores Airport (LPFL)

NameFlores Airport
CityFlores (flores Isl.)
CountryPortugal
ICAOLPFL
IATAFLW
Altitude34 m
CoordinatesGoogle Map
Live Air TrafficLiveATC.net
METARLPFL 111700Z 18024G46KT 150V230 8000 -RA SCT017 18/15 Q1012
2018-12-11 17:00:00 Wind: South (180°) 12.35 m/s - Visibility: 8000 m - Weather: Light Rain - Temperature: 18 °C - Dew point: 15 °C - Humidity: 82.7% - Pressure: 1012 hPa

Sorry, no flights used the airport in this database.